createdAt,value
2019-01-20T00:00:56.821Z,1000.21
2019-01-20T00:01:56.785Z,1000.19
2019-01-20T00:02:56.738Z,1000.18
2019-01-20T00:03:56.738Z,1000.22
2019-01-20T00:04:56.717Z,1000.22
2019-01-20T00:05:56.682Z,1000.20
2019-01-20T00:06:56.670Z,1000.19
2019-01-20T00:07:56.620Z,1000.19
2019-01-20T00:08:56.591Z,1000.16
2019-01-20T00:09:56.591Z,1000.20
2019-01-20T00:10:56.774Z,1000.19
2019-01-20T00:11:56.717Z,1000.18
2019-01-20T00:12:57.080Z,1000.18
2019-01-20T00:15:20.394Z,1000.18
2019-01-20T00:16:20.281Z,1000.19
2019-01-20T00:17:20.270Z,1000.23
2019-01-20T00:18:20.234Z,1000.19
2019-01-20T00:19:20.212Z,1000.25
2019-01-20T00:20:20.258Z,1000.19
2019-01-20T00:21:20.212Z,1000.21
2019-01-20T00:22:20.102Z,1000.26
2019-01-20T00:23:20.068Z,1000.24
2019-01-20T00:24:20.043Z,1000.23
2019-01-20T00:25:20.019Z,1000.30
2019-01-20T00:26:20.011Z,1000.20
2019-01-20T00:27:19.948Z,1000.26
2019-01-20T00:28:19.926Z,1000.25
2019-01-20T00:29:19.932Z,1000.23
2019-01-20T00:30:19.869Z,1000.25
2019-01-20T00:31:19.857Z,1000.23
2019-01-20T00:32:19.840Z,1000.20
2019-01-20T00:33:19.774Z,1000.27
2019-01-20T00:34:19.890Z,1000.24
2019-01-20T00:35:19.771Z,1000.23
2019-01-20T00:36:19.699Z,1000.23
2019-01-20T00:37:19.657Z,1000.22
2019-01-20T00:38:19.698Z,1000.25
2019-01-20T00:39:19.613Z,1000.20
2019-01-20T00:40:19.576Z,1000.23
2019-01-20T00:41:24.080Z,1000.26
2019-01-20T00:42:19.554Z,1000.20
2019-01-20T00:43:19.496Z,1000.24
2019-01-20T00:44:19.511Z,1000.21
2019-01-20T00:45:19.440Z,1000.20
2019-01-20T00:46:19.428Z,1000.23
2019-01-20T00:47:19.366Z,1000.21
2019-01-20T00:48:19.368Z,1000.19
2019-01-20T00:49:19.301Z,1000.18
2019-01-20T00:50:19.308Z,1000.17
2019-01-20T00:51:19.302Z,1000.17
2019-01-20T00:52:19.266Z,1000.15
2019-01-20T00:53:19.182Z,1000.14
2019-01-20T00:54:19.178Z,1000.17
2019-01-20T00:55:19.141Z,1000.17
2019-01-20T00:56:19.126Z,1000.17
2019-01-20T00:57:19.064Z,1000.22
2019-01-20T00:58:19.052Z,1000.18
2019-01-20T00:59:19.025Z,1000.17
2019-01-20T01:00:18.977Z,1000.14
2019-01-20T01:01:18.956Z,1000.18
2019-01-20T01:02:18.986Z,1000.19
2019-01-20T01:03:18.985Z,1000.19
2019-01-20T01:04:18.922Z,1000.16
2019-01-20T01:05:18.854Z,1000.17
2019-01-20T01:06:18.820Z,1000.18
2019-01-20T01:07:18.845Z,1000.17
2019-01-20T01:08:18.787Z,1000.15
2019-01-20T01:09:18.781Z,1000.15
2019-01-20T01:10:18.719Z,1000.20
2019-01-20T01:11:18.686Z,1000.22
2019-01-20T01:12:18.671Z,1000.25
2019-01-20T01:13:18.636Z,1000.24
2019-01-20T01:14:18.586Z,1000.20
2019-01-20T01:15:18.564Z,1000.20
2019-01-20T01:16:18.546Z,1000.23
2019-01-20T01:17:18.502Z,1000.22
2019-01-20T01:18:18.437Z,1000.22
2019-01-20T01:19:18.443Z,1000.22
2019-01-20T01:20:18.416Z,1000.20
2019-01-20T01:21:18.385Z,1000.20
2019-01-20T01:22:18.343Z,1000.17
2019-01-20T01:23:18.313Z,1000.17
2019-01-20T01:24:18.291Z,1000.17
2019-01-20T01:25:18.248Z,1000.18
2019-01-20T01:26:18.248Z,1000.17
2019-01-20T01:27:18.202Z,1000.16
2019-01-20T01:28:18.161Z,1000.18
2019-01-20T01:29:18.144Z,1000.16
2019-01-20T01:30:18.099Z,1000.17
2019-01-20T01:31:18.088Z,1000.19
2019-01-20T01:32:18.097Z,1000.17
2019-01-20T01:33:17.987Z,1000.15
2019-01-20T01:34:18.006Z,1000.13
2019-01-20T01:35:17.983Z,1000.14
2019-01-20T01:36:17.912Z,1000.15
2019-01-20T01:37:17.915Z,1000.14
2019-01-20T01:38:17.892Z,1000.14
2019-01-20T01:39:17.855Z,1000.13
2019-01-20T01:40:17.803Z,1000.16
2019-01-20T01:41:17.836Z,1000.20
2019-01-20T01:42:17.753Z,1000.16
2019-01-20T01:43:17.729Z,1000.17
2019-01-20T01:44:17.682Z,1000.19
2019-01-20T01:45:17.655Z,1000.22
2019-01-20T01:46:17.637Z,1000.21
2019-01-20T01:47:17.569Z,1000.19
2019-01-20T01:48:17.567Z,1000.21
2019-01-20T01:49:17.515Z,1000.24
2019-01-20T01:50:17.560Z,1000.21
2019-01-20T01:51:17.479Z,1000.21
2019-01-20T01:52:17.425Z,1000.25
2019-01-20T01:53:17.400Z,1000.20
2019-01-20T01:54:17.370Z,1000.20
2019-01-20T01:55:17.359Z,1000.24
2019-01-20T01:56:17.330Z,1000.22
2019-01-20T01:57:17.308Z,1000.23
2019-01-20T01:58:17.263Z,1000.25
2019-01-20T01:59:17.259Z,1000.26
2019-01-20T02:00:17.180Z,1000.25
2019-01-20T02:01:17.182Z,1000.25
2019-01-20T02:02:17.154Z,1000.24
2019-01-20T02:03:17.099Z,1000.24
2019-01-20T02:04:17.095Z,1000.27
2019-01-20T02:05:17.105Z,1000.28
2019-01-20T02:06:17.002Z,1000.23
2019-01-20T02:07:18.550Z,1000.25
2019-01-20T02:08:16.965Z,1000.28
2019-01-20T02:09:16.943Z,1000.28
2019-01-20T02:10:16.947Z,1000.28
2019-01-20T02:11:16.843Z,1000.28
2019-01-20T02:12:16.865Z,1000.27
2019-01-20T02:13:16.808Z,1000.27
2019-01-20T02:14:16.778Z,1000.24
2019-01-20T02:15:16.738Z,1000.26
2019-01-20T02:16:16.704Z,1000.27
2019-01-20T02:17:16.719Z,1000.27
2019-01-20T02:18:16.660Z,1000.23
2019-01-20T02:20:49.817Z,1000.23
2019-01-20T02:21:39.635Z,1000.26
2019-01-20T02:22:39.736Z,1000.22
2019-01-20T02:23:39.661Z,1000.26
2019-01-20T02:24:39.530Z,1000.27
2019-01-20T02:25:39.504Z,1000.30
2019-01-20T02:26:39.496Z,1000.31
2019-01-20T02:27:39.461Z,1000.32
2019-01-20T02:28:39.413Z,1000.32
2019-01-20T02:29:39.428Z,1000.29
2019-01-20T02:30:39.387Z,1000.32
2019-01-20T02:31:39.341Z,1000.34
2019-01-20T02:32:39.285Z,1000.34
2019-01-20T02:33:39.295Z,1000.35
2019-01-20T02:34:39.259Z,1000.35
2019-01-20T02:35:39.217Z,1000.36
2019-01-20T02:36:39.202Z,1000.37
2019-01-20T02:37:39.182Z,1000.37
2019-01-20T02:38:39.141Z,1000.35
2019-01-20T02:39:39.082Z,1000.34
2019-01-20T02:40:39.055Z,1000.34
2019-01-20T02:41:39.021Z,1000.34
2019-01-20T02:42:39.028Z,1000.33
2019-01-20T02:43:38.991Z,1000.30
2019-01-20T02:44:38.940Z,1000.32
2019-01-20T02:45:38.883Z,1000.28
2019-01-20T02:46:38.900Z,1000.28
2019-01-20T02:47:38.860Z,1000.28
2019-01-20T02:48:38.851Z,1000.29
2019-01-20T02:49:38.816Z,1000.30
2019-01-20T02:50:38.770Z,1000.26
2019-01-20T02:51:38.738Z,1000.24
2019-01-20T02:52:38.683Z,1000.27
2019-01-20T02:53:38.669Z,1000.26
2019-01-20T02:54:38.630Z,1000.25
2019-01-20T02:55:38.595Z,1000.23
2019-01-20T02:56:38.586Z,1000.21
2019-01-20T02:57:38.547Z,1000.19
2019-01-20T02:58:38.509Z,1000.20
2019-01-20T02:59:38.466Z,1000.20
2019-01-20T03:00:38.442Z,1000.22
2019-01-20T03:01:38.460Z,1000.21
2019-01-20T03:02:38.377Z,1000.17
2019-01-20T03:03:38.389Z,1000.21
2019-01-20T03:04:38.343Z,1000.23
2019-01-20T03:05:38.346Z,1000.22
2019-01-20T03:08:01.318Z,1000.29
2019-01-20T03:09:01.837Z,1000.28
2019-01-20T03:10:01.321Z,1000.28
2019-01-20T03:11:01.317Z,1000.28
2019-01-20T03:12:03.585Z,1000.25
2019-01-20T03:13:01.146Z,1000.23
2019-01-20T03:14:01.114Z,1000.23
2019-01-20T03:15:01.078Z,1000.24
2019-01-20T03:16:01.072Z,1000.25
2019-01-20T03:17:01.044Z,1000.25
2019-01-20T03:18:01.012Z,1000.20
2019-01-20T03:19:01.062Z,1000.27
2019-01-20T03:20:00.932Z,1000.24
2019-01-20T03:21:00.883Z,1000.24
2019-01-20T03:22:00.856Z,1000.29
2019-01-20T03:23:00.873Z,1000.27
2019-01-20T03:24:00.800Z,1000.24
2019-01-20T03:25:00.773Z,1000.25
2019-01-20T03:26:00.770Z,1000.26
2019-01-20T03:27:00.711Z,1000.26
2019-01-20T03:28:00.682Z,1000.25
2019-01-20T03:29:00.687Z,1000.29
2019-01-20T03:30:00.636Z,1000.31
2019-01-20T03:31:00.614Z,1000.29
2019-01-20T03:32:00.587Z,1000.32
2019-01-20T03:33:00.561Z,1000.28
2019-01-20T03:35:23.578Z,1000.33
2019-01-20T03:36:23.615Z,1000.33
2019-01-20T03:37:23.446Z,1000.35
2019-01-20T03:38:23.412Z,1000.33
2019-01-20T03:39:23.402Z,1000.35
2019-01-20T03:40:23.331Z,1000.36
2019-01-20T03:42:46.359Z,1000.38
2019-01-20T03:45:19.466Z,1000.37
2019-01-20T03:46:09.531Z,1000.38
2019-01-20T03:48:32.295Z,1000.39
2019-01-20T03:49:32.265Z,1000.39
2019-01-20T03:50:32.227Z,1000.39
2019-01-20T03:51:32.187Z,1000.41
2019-01-20T03:52:32.309Z,1000.38
2019-01-20T03:53:32.156Z,1000.37
2019-01-20T03:54:32.101Z,1000.35
2019-01-20T03:55:32.076Z,1000.35
2019-01-20T03:56:32.073Z,1000.31
2019-01-20T03:57:32.042Z,1000.33
2019-01-20T03:59:55.039Z,1000.31
2019-01-20T04:00:55.188Z,1000.28
2019-01-20T04:01:54.910Z,1000.30
2019-01-20T04:02:54.886Z,1000.30
2019-01-20T04:03:54.930Z,1000.28
2019-01-20T04:04:54.820Z,1000.27
2019-01-20T04:05:54.811Z,1000.31
2019-01-20T04:06:54.786Z,1000.28
2019-01-20T04:07:54.722Z,1000.28
2019-01-20T04:08:54.685Z,1000.31
2019-01-20T04:09:54.700Z,1000.29
2019-01-20T04:10:54.691Z,1000.27
2019-01-20T04:11:54.618Z,1000.31
2019-01-20T04:12:54.595Z,1000.31
2019-01-20T04:13:54.575Z,1000.32
2019-01-20T04:14:54.585Z,1000.30
2019-01-20T04:17:17.552Z,1000.27
2019-01-20T04:18:17.466Z,1000.23
2019-01-20T04:20:40.667Z,1000.20
2019-01-20T04:21:40.432Z,1000.20
2019-01-20T04:22:40.420Z,1000.21
2019-01-20T04:23:40.419Z,1000.19
2019-01-20T04:24:40.353Z,1000.18
2019-01-20T04:25:40.314Z,1000.20
2019-01-20T04:26:40.260Z,1000.18
2019-01-20T04:27:40.265Z,1000.17
2019-01-20T04:28:40.231Z,1000.14
2019-01-20T04:29:40.201Z,1000.13
2019-01-20T04:30:40.191Z,1000.10
2019-01-20T04:31:40.138Z,1000.12
2019-01-20T04:32:40.115Z,1000.11
2019-01-20T04:33:40.058Z,1000.12
2019-01-20T04:34:40.044Z,1000.09
2019-01-20T04:35:40.012Z,1000.12
2019-01-20T04:36:39.970Z,1000.07
2019-01-20T04:37:39.943Z,1000.08
2019-01-20T04:38:39.912Z,1000.08
2019-01-20T04:39:39.905Z,1000.08
2019-01-20T04:40:39.853Z,1000.09
2019-01-20T04:41:39.844Z,1000.09
2019-01-20T04:42:39.806Z,1000.10
2019-01-20T04:43:39.748Z,1000.11
2019-01-20T04:44:39.786Z,1000.10
2019-01-20T04:45:39.676Z,1000.10
2019-01-20T04:46:39.681Z,1000.13
2019-01-20T04:47:39.644Z,1000.14
2019-01-20T04:48:39.586Z,1000.13
2019-01-20T04:49:39.558Z,1000.14
2019-01-20T04:50:39.523Z,1000.15
2019-01-20T04:51:39.573Z,1000.16
2019-01-20T04:52:39.511Z,1000.15
2019-01-20T04:53:39.447Z,1000.16
2019-01-20T04:54:39.427Z,1000.17
2019-01-20T04:55:39.408Z,1000.21
2019-01-20T04:56:39.361Z,1000.19
2019-01-20T04:57:39.328Z,1000.20
2019-01-20T05:00:02.523Z,1000.21
2019-01-20T05:01:02.433Z,1000.19
2019-01-20T05:02:02.266Z,1000.17
2019-01-20T05:03:02.377Z,1000.22
2019-01-20T05:04:02.232Z,1000.21
2019-01-20T05:05:02.167Z,1000.24
2019-01-20T05:06:02.159Z,1000.24
2019-01-20T05:07:02.165Z,1000.28
2019-01-20T05:08:02.063Z,1000.28
2019-01-20T05:09:02.068Z,1000.27
2019-01-20T05:10:02.033Z,1000.25
2019-01-20T05:11:02.033Z,1000.27
2019-01-20T05:12:01.977Z,1000.31
2019-01-20T05:13:01.952Z,1000.31
2019-01-20T05:14:01.883Z,1000.32
2019-01-20T05:15:01.896Z,1000.31
2019-01-20T05:16:01.828Z,1000.36
2019-01-20T05:17:01.846Z,1000.36
2019-01-20T05:18:01.795Z,1000.36
2019-01-20T05:19:01.764Z,1000.31
2019-01-20T05:20:01.723Z,1000.35
2019-01-20T05:21:01.693Z,1000.34
2019-01-20T05:22:01.710Z,1000.38
2019-01-20T05:23:01.678Z,1000.38
2019-01-20T05:24:01.592Z,1000.40
2019-01-20T05:25:01.563Z,1000.33
2019-01-20T05:26:01.539Z,1000.40
2019-01-20T05:27:01.514Z,1000.42
2019-01-20T05:28:01.487Z,1000.42
2019-01-20T05:29:01.466Z,1000.44
2019-01-20T05:30:01.423Z,1000.38
2019-01-20T05:31:01.359Z,1000.44
2019-01-20T05:32:01.355Z,1000.49
2019-01-20T05:33:01.313Z,1000.46
2019-01-20T05:34:01.334Z,1000.48
2019-01-20T05:35:01.284Z,1000.51
2019-01-20T05:36:01.239Z,1000.49
2019-01-20T05:37:01.183Z,1000.48
2019-01-20T05:38:01.148Z,1000.47
2019-01-20T05:39:01.146Z,1000.51
2019-01-20T05:40:01.108Z,1000.44
2019-01-20T05:41:01.077Z,1000.52
2019-01-20T05:42:01.049Z,1000.47
2019-01-20T05:43:01.010Z,1000.49
2019-01-20T05:44:00.951Z,1000.47
2019-01-20T05:45:00.992Z,1000.46
2019-01-20T05:46:00.920Z,1000.48
2019-01-20T05:47:00.899Z,1000.46
2019-01-20T05:48:00.868Z,1000.50
2019-01-20T05:49:00.838Z,1000.50
2019-01-20T05:50:00.798Z,1000.51
2019-01-20T05:51:00.785Z,1000.48
2019-01-20T05:52:00.753Z,1000.49
2019-01-20T05:53:00.773Z,1000.53
2019-01-20T05:54:00.677Z,1000.50
2019-01-20T05:55:00.626Z,1000.51
2019-01-20T05:56:01.973Z,1000.52
2019-01-20T05:57:00.606Z,1000.51
2019-01-20T05:58:00.672Z,1000.54
2019-01-20T05:59:00.498Z,1000.51
2019-01-20T06:00:00.481Z,1000.54
2019-01-20T06:01:00.449Z,1000.54
2019-01-20T06:02:00.415Z,1000.48
2019-01-20T06:03:00.434Z,1000.52
2019-01-20T06:04:00.371Z,1000.56
2019-01-20T06:05:00.333Z,1000.56
2019-01-20T06:06:00.281Z,1000.54
2019-01-20T06:07:00.288Z,1000.55
2019-01-20T06:08:00.203Z,1000.58
2019-01-20T06:09:00.185Z,1000.57
2019-01-20T06:10:00.186Z,1000.55
2019-01-20T06:11:00.145Z,1000.54
2019-01-20T06:12:00.127Z,1000.60
2019-01-20T06:13:00.088Z,1000.57
2019-01-20T06:14:00.061Z,1000.60
2019-01-20T06:15:00.023Z,1000.59
2019-01-20T06:16:00.009Z,1000.62
2019-01-20T06:16:59.964Z,1000.59
2019-01-20T06:17:59.953Z,1000.63
2019-01-20T06:18:59.905Z,1000.59
2019-01-20T06:19:59.867Z,1000.60
2019-01-20T06:20:59.851Z,1000.59
2019-01-20T06:21:59.769Z,1000.63
2019-01-20T06:22:59.768Z,1000.64
2019-01-20T06:23:59.750Z,1000.61
2019-01-20T06:24:59.705Z,1000.62
2019-01-20T06:25:59.698Z,1000.62
2019-01-20T06:26:59.645Z,1000.62
2019-01-20T06:27:59.585Z,1000.64
2019-01-20T06:30:22.635Z,1000.63
2019-01-20T06:31:22.949Z,1000.65
2019-01-20T06:32:22.605Z,1000.66
2019-01-20T06:33:22.522Z,1000.69
2019-01-20T06:34:22.523Z,1000.69
2019-01-20T06:35:22.481Z,1000.69
2019-01-20T06:36:22.390Z,1000.73
2019-01-20T06:37:22.407Z,1000.72
2019-01-20T06:38:22.399Z,1000.72
2019-01-20T06:39:22.336Z,1000.76
2019-01-20T06:40:22.350Z,1000.76
2019-01-20T06:41:22.235Z,1000.72
2019-01-20T06:42:22.212Z,1000.72
2019-01-20T06:43:22.223Z,1000.77
2019-01-20T06:44:22.201Z,1000.81
2019-01-20T06:45:22.142Z,1000.76
2019-01-20T06:46:22.086Z,1000.79
2019-01-20T06:47:22.093Z,1000.79
2019-01-20T06:48:22.051Z,1000.78
2019-01-20T06:49:22.018Z,1000.79
2019-01-20T06:50:21.986Z,1000.81
2019-01-20T06:51:21.976Z,1000.80
2019-01-20T06:52:21.890Z,1000.83
2019-01-20T06:53:21.890Z,1000.82
2019-01-20T06:54:21.864Z,1000.92
2019-01-20T06:55:21.932Z,1000.87
2019-01-20T06:56:21.775Z,1000.91
2019-01-20T06:57:21.820Z,1000.88
2019-01-20T06:58:21.722Z,1000.91
2019-01-20T06:59:21.672Z,1000.90
2019-01-20T07:00:21.651Z,1000.90
2019-01-20T07:01:21.655Z,1000.92
2019-01-20T07:02:21.618Z,1000.95
2019-01-20T07:03:21.572Z,1000.92
2019-01-20T07:04:21.552Z,1000.94
2019-01-20T07:05:21.493Z,1000.97
2019-01-20T07:06:21.507Z,1000.95
2019-01-20T07:07:21.451Z,1000.96
2019-01-20T07:08:21.397Z,1000.98
2019-01-20T07:09:21.377Z,1000.97
2019-01-20T07:10:21.335Z,1001.01
2019-01-20T07:12:45.284Z,1001.05
2019-01-20T07:13:45.319Z,1001.08
2019-01-20T07:16:08.180Z,1001.09
2019-01-20T07:17:08.174Z,1001.09
2019-01-20T07:18:08.159Z,1001.10
2019-01-20T07:19:08.053Z,1001.09
2019-01-20T07:20:08.130Z,1001.09
2019-01-20T07:21:07.996Z,1001.11
2019-01-20T07:22:07.975Z,1001.10
2019-01-20T07:23:07.920Z,1001.10
2019-01-20T07:24:07.864Z,1001.13
2019-01-20T07:25:07.898Z,1001.14
2019-01-20T07:26:07.834Z,1001.13
2019-01-20T07:28:30.822Z,1001.13
2019-01-20T07:29:30.786Z,1001.12
2019-01-20T07:30:30.755Z,1001.16
2019-01-20T07:31:30.708Z,1001.20
2019-01-20T07:32:30.704Z,1001.18
2019-01-20T07:33:30.624Z,1001.18
2019-01-20T07:34:30.585Z,1001.20
2019-01-20T07:35:30.602Z,1001.20
2019-01-20T07:36:30.532Z,1001.21
2019-01-20T07:37:30.743Z,1001.28
2019-01-20T07:38:30.532Z,1001.25
2019-01-20T07:39:30.433Z,1001.25
2019-01-20T07:41:53.628Z,1001.26
2019-01-20T07:42:53.429Z,1001.30
2019-01-20T07:43:53.473Z,1001.30
2019-01-20T07:44:53.451Z,1001.31
2019-01-20T07:45:53.465Z,1001.33
2019-01-20T07:46:53.367Z,1001.33
2019-01-20T07:47:53.242Z,1001.32
2019-01-20T07:48:53.209Z,1001.34
2019-01-20T07:49:53.207Z,1001.36
2019-01-20T07:50:53.174Z,1001.37
2019-01-20T07:51:53.167Z,1001.37
2019-01-20T07:52:53.163Z,1001.35
2019-01-20T07:53:53.259Z,1001.40
2019-01-20T07:54:53.958Z,1001.39
2019-01-20T07:55:53.156Z,1001.44
2019-01-20T07:56:53.007Z,1001.39
2019-01-20T07:57:52.982Z,1001.45
2019-01-20T07:59:04.158Z,1001.44
2019-01-20T08:00:58.015Z,1001.45
2019-01-20T08:01:47.236Z,1001.46
2019-01-20T08:02:47.276Z,1001.47
2019-01-20T08:03:47.156Z,1001.47
2019-01-20T08:04:47.136Z,1001.52
2019-01-20T08:05:47.125Z,1001.52
2019-01-20T08:06:47.104Z,1001.57
2019-01-20T08:07:48.835Z,1001.57
2019-01-20T08:08:47.001Z,1001.61
2019-01-20T08:09:46.967Z,1001.60
2019-01-20T08:12:10.081Z,1001.63
2019-01-20T08:13:09.930Z,1001.65
2019-01-20T08:14:09.933Z,1001.66
2019-01-20T08:15:09.942Z,1001.68
2019-01-20T08:16:09.917Z,1001.71
2019-01-20T08:17:11.307Z,1001.67
2019-01-20T08:18:09.768Z,1001.66
2019-01-20T08:20:32.862Z,1001.66
2019-01-20T08:21:33.196Z,1001.71
2019-01-20T08:22:32.888Z,1001.71
2019-01-20T08:24:55.745Z,1001.75
2019-01-20T08:27:18.830Z,1001.78
2019-01-20T08:28:18.969Z,1001.78
2019-01-20T08:30:52.845Z,1001.82
2019-01-20T08:31:42.094Z,1001.81
2019-01-20T08:32:41.629Z,1001.81
2019-01-20T08:33:41.580Z,1001.88
2019-01-20T08:34:41.585Z,1001.92
2019-01-20T08:35:41.591Z,1001.94
2019-01-20T08:36:41.487Z,1001.96
2019-01-20T08:39:04.577Z,1002.01
2019-01-20T08:40:04.803Z,1002.03
2019-01-20T08:41:04.506Z,1002.04
2019-01-20T08:42:04.473Z,1002.01
2019-01-20T08:43:04.415Z,1002.02
2019-01-20T08:44:04.354Z,1002.03
2019-01-20T08:45:04.332Z,1002.06
2019-01-20T08:46:04.343Z,1002.06
2019-01-20T08:47:04.301Z,1002.06
2019-01-20T08:48:04.399Z,1002.10
2019-01-20T08:49:04.252Z,1002.06
2019-01-20T08:50:04.218Z,1002.09
2019-01-20T08:51:04.157Z,1002.08
2019-01-20T08:52:04.142Z,1002.14
2019-01-20T08:53:04.133Z,1002.12
2019-01-20T08:55:27.843Z,1002.10
2019-01-20T08:56:27.092Z,1002.14
2019-01-20T08:57:27.045Z,1002.15
2019-01-20T08:58:26.974Z,1002.17
2019-01-20T08:59:26.932Z,1002.16
2019-01-20T09:00:27.677Z,1002.18
2019-01-20T09:01:26.903Z,1002.18
2019-01-20T09:03:50.232Z,1002.17
2019-01-20T09:04:49.946Z,1002.15
2019-01-20T09:05:49.805Z,1002.18
2019-01-20T09:06:49.794Z,1002.15
2019-01-20T09:07:49.762Z,1002.20
2019-01-20T09:08:49.718Z,1002.19
2019-01-20T09:09:49.700Z,1002.18
2019-01-20T09:10:49.645Z,1002.24
2019-01-20T09:11:49.635Z,1002.22
2019-01-20T09:12:49.629Z,1002.22
2019-01-20T09:13:49.556Z,1002.24
2019-01-20T09:14:49.546Z,1002.28
2019-01-20T09:15:49.525Z,1002.28
2019-01-20T09:16:49.461Z,1002.28
2019-01-20T09:17:49.423Z,1002.35
2019-01-20T09:18:49.398Z,1002.38
2019-01-20T09:19:49.368Z,1002.42
2019-01-20T09:20:49.357Z,1002.41
2019-01-20T09:21:49.354Z,1002.45
2019-01-20T09:22:49.317Z,1002.49
2019-01-20T09:23:49.337Z,1002.50
2019-01-20T09:24:49.258Z,1002.48
2019-01-20T09:25:49.198Z,1002.47
2019-01-20T09:26:49.172Z,1002.50
2019-01-20T09:27:49.178Z,1002.52
2019-01-20T09:28:49.133Z,1002.52
2019-01-20T09:29:49.135Z,1002.53
2019-01-20T09:30:49.041Z,1002.58
2019-01-20T09:31:49.036Z,1002.61
2019-01-20T09:32:49.022Z,1002.55
2019-01-20T09:33:48.992Z,1002.59
2019-01-20T09:34:48.994Z,1002.60
2019-01-20T09:35:48.908Z,1002.57
2019-01-20T09:36:48.886Z,1002.60
2019-01-20T09:37:48.834Z,1002.57
2019-01-20T09:40:11.902Z,1002.62
2019-01-20T09:41:11.837Z,1002.63
2019-01-20T09:42:11.784Z,1002.64
2019-01-20T09:43:11.802Z,1002.63
2019-01-20T09:44:11.764Z,1002.65
2019-01-20T09:45:11.713Z,1002.63
2019-01-20T09:46:11.659Z,1002.65
2019-01-20T09:47:11.637Z,1002.67
2019-01-20T09:48:11.628Z,1002.67
2019-01-20T09:49:11.607Z,1002.68
2019-01-20T09:50:11.532Z,1002.70
2019-01-20T09:51:11.504Z,1002.69
2019-01-20T09:52:11.512Z,1002.68
2019-01-20T09:53:11.459Z,1002.71
2019-01-20T09:54:11.423Z,1002.73
2019-01-20T09:55:11.445Z,1002.73
2019-01-20T09:56:11.379Z,1002.75
2019-01-20T09:57:11.324Z,1002.77
2019-01-20T09:58:11.330Z,1002.74
2019-01-20T09:59:11.303Z,1002.77
2019-01-20T10:00:11.250Z,1002.80
2019-01-20T10:01:11.252Z,1002.81
2019-01-20T10:02:11.182Z,1002.81
2019-01-20T10:03:16.137Z,1002.82
2019-01-20T10:05:44.394Z,1002.86
2019-01-20T10:06:34.117Z,1002.82
2019-01-20T10:07:34.083Z,1002.82
2019-01-20T10:08:34.074Z,1002.84
2019-01-20T10:09:34.029Z,1002.88
2019-01-20T10:10:34.006Z,1002.89
2019-01-20T10:11:33.955Z,1002.88
2019-01-20T10:12:33.930Z,1002.93
2019-01-20T10:13:33.899Z,1002.92
2019-01-20T10:14:33.895Z,1002.99
2019-01-20T10:15:33.839Z,1002.96
2019-01-20T10:16:33.824Z,1002.97
2019-01-20T10:17:33.780Z,1002.95
2019-01-20T10:18:33.747Z,1002.98
2019-01-20T10:19:33.752Z,1002.97
2019-01-20T10:20:33.697Z,1002.99
2019-01-20T10:21:33.706Z,1003.00
2019-01-20T10:22:33.679Z,1003.01
2019-01-20T10:23:33.618Z,1003.02
2019-01-20T10:24:33.583Z,1002.98
2019-01-20T10:25:33.581Z,1003.01
2019-01-20T10:26:33.605Z,1003.03
2019-01-20T10:27:33.531Z,1003.02
2019-01-20T10:28:33.510Z,1003.02
2019-01-20T10:29:33.456Z,1003.02
2019-01-20T10:30:33.457Z,1003.02
2019-01-20T10:31:33.410Z,1003.09
2019-01-20T10:32:33.346Z,1003.02
2019-01-20T10:33:33.365Z,1003.04
2019-01-20T10:34:33.286Z,1003.03
2019-01-20T10:35:33.279Z,1002.99
2019-01-20T10:36:33.264Z,1003.03
2019-01-20T10:37:33.209Z,1003.04
2019-01-20T10:38:37.320Z,1003.05
2019-01-20T10:39:33.142Z,1003.01
2019-01-20T10:40:33.136Z,1003.08
2019-01-20T10:41:33.091Z,1003.06
2019-01-20T10:42:33.051Z,1003.07
2019-01-20T10:43:33.022Z,1003.04
2019-01-20T10:44:33.022Z,1003.09
2019-01-20T10:45:33.002Z,1003.08
2019-01-20T10:46:32.969Z,1003.08
2019-01-20T10:47:32.939Z,1003.12
2019-01-20T10:48:32.915Z,1003.08
2019-01-20T10:49:32.859Z,1003.09
2019-01-20T10:50:32.845Z,1003.13
2019-01-20T10:51:32.833Z,1003.11
2019-01-20T10:52:32.800Z,1003.15
2019-01-20T10:53:32.752Z,1003.13
2019-01-20T10:54:32.779Z,1003.12
2019-01-20T10:55:34.220Z,1003.12
2019-01-20T10:56:32.676Z,1003.13
2019-01-20T10:57:32.623Z,1003.15
2019-01-20T10:58:32.626Z,1003.09
2019-01-20T10:59:32.565Z,1003.15
2019-01-20T11:00:32.590Z,1003.12
2019-01-20T11:01:32.507Z,1003.09
2019-01-20T11:02:32.524Z,1003.13
2019-01-20T11:03:32.454Z,1003.07
2019-01-20T11:04:32.459Z,1003.11
2019-01-20T11:05:32.827Z,1003.16
2019-01-20T11:06:32.398Z,1003.14
2019-01-20T11:07:32.352Z,1003.15
2019-01-20T11:08:32.319Z,1003.14
2019-01-20T11:09:32.323Z,1003.13
2019-01-20T11:10:32.254Z,1003.16
2019-01-20T11:11:32.245Z,1003.13
2019-01-20T11:12:32.193Z,1003.13
2019-01-20T11:13:32.212Z,1003.09
2019-01-20T11:14:32.141Z,1003.15
2019-01-20T11:15:32.110Z,1003.14
2019-01-20T11:18:05.738Z,1003.11
2019-01-20T11:20:28.012Z,1003.11
2019-01-20T11:21:17.982Z,1003.14
2019-01-20T11:22:17.983Z,1003.11
2019-01-20T11:23:17.822Z,1003.11
2019-01-20T11:24:17.913Z,1003.19
2019-01-20T11:25:19.480Z,1003.18
2019-01-20T11:26:17.753Z,1003.19
2019-01-20T11:27:17.754Z,1003.21
2019-01-20T11:29:40.065Z,1003.18
2019-01-20T11:30:39.827Z,1003.20
2019-01-20T11:31:39.756Z,1003.23
2019-01-20T11:32:42.448Z,1003.21
2019-01-20T11:33:39.766Z,1003.18
2019-01-20T11:34:39.658Z,1003.18
2019-01-20T11:35:39.619Z,1003.18
2019-01-20T11:36:39.616Z,1003.19
2019-01-20T11:37:39.553Z,1003.17
2019-01-20T11:38:39.552Z,1003.14
2019-01-20T11:39:39.493Z,1003.17
2019-01-20T11:40:39.472Z,1003.20
2019-01-20T11:41:39.465Z,1003.18
2019-01-20T11:42:39.458Z,1003.19
2019-01-20T11:43:51.293Z,1003.20
2019-01-20T11:45:43.843Z,1003.18
2019-01-20T11:46:33.725Z,1003.16
2019-01-20T11:47:33.754Z,1003.18
2019-01-20T11:48:33.691Z,1003.18
2019-01-20T11:49:33.635Z,1003.17
2019-01-20T11:50:33.596Z,1003.18
2019-01-20T11:51:33.577Z,1003.18
2019-01-20T11:52:33.583Z,1003.15
2019-01-20T11:53:33.541Z,1003.13
2019-01-20T11:54:33.518Z,1003.11
2019-01-20T11:55:33.476Z,1003.13
2019-01-20T11:56:33.423Z,1003.10
2019-01-20T11:57:33.393Z,1003.09
2019-01-20T11:58:33.388Z,1003.10
2019-01-20T11:59:33.335Z,1003.09
2019-01-20T12:00:33.339Z,1003.11
2019-01-20T12:01:33.322Z,1003.09
2019-01-20T12:02:33.253Z,1003.10
2019-01-20T12:03:33.224Z,1003.11
2019-01-20T12:04:33.231Z,1003.08
2019-01-20T12:05:33.208Z,1003.08
2019-01-20T12:08:07.610Z,1003.09
2019-01-20T12:08:56.392Z,1003.07
2019-01-20T12:09:56.192Z,1003.08
2019-01-20T12:10:56.106Z,1003.10
2019-01-20T12:11:56.117Z,1003.08
2019-01-20T12:12:56.053Z,1003.10
2019-01-20T12:13:56.062Z,1003.12
2019-01-20T12:14:56.014Z,1003.13
2019-01-20T12:15:55.960Z,1003.10
2019-01-20T12:16:55.947Z,1003.12
2019-01-20T12:17:55.881Z,1003.07
2019-01-20T12:18:55.905Z,1003.09
2019-01-20T12:19:55.832Z,1003.08
2019-01-20T12:20:55.798Z,1003.05
2019-01-20T12:21:55.796Z,1003.10
2019-01-20T12:22:55.765Z,1003.09
2019-01-20T12:23:55.720Z,1003.11
2019-01-20T12:24:55.718Z,1003.07
2019-01-20T12:25:55.680Z,1003.09
2019-01-20T12:26:55.693Z,1003.09
2019-01-20T12:27:57.253Z,1003.11
2019-01-20T12:28:55.603Z,1003.06
2019-01-20T12:29:55.580Z,1003.08
2019-01-20T12:30:55.523Z,1003.07
2019-01-20T12:31:55.491Z,1003.09
2019-01-20T12:32:55.468Z,1003.06
2019-01-20T12:33:56.037Z,1003.08
2019-01-20T12:34:55.460Z,1003.07
2019-01-20T12:35:55.420Z,1003.08
2019-01-20T12:36:55.383Z,1003.11
2019-01-20T12:37:55.384Z,1003.08
2019-01-20T12:38:55.306Z,1003.09
2019-01-20T12:39:55.274Z,1003.11
2019-01-20T12:40:55.246Z,1003.09
2019-01-20T12:41:55.220Z,1003.12
2019-01-20T12:42:55.203Z,1003.07
2019-01-20T12:43:55.164Z,1003.12
2019-01-20T12:44:55.528Z,1003.14
2019-01-20T12:45:55.151Z,1003.13
2019-01-20T12:46:55.117Z,1003.11
2019-01-20T12:47:55.058Z,1003.12
2019-01-20T12:48:55.045Z,1003.14